createdAt,value
2018-12-05T00:02:12.453Z,94.20
2018-12-05T00:04:40.693Z,94.30
2018-12-05T00:07:08.934Z,95.30
2018-12-05T00:09:37.178Z,91.20
2018-12-05T00:12:05.435Z,91.30
2018-12-05T00:14:33.641Z,90.00
2018-12-05T00:17:01.907Z,90.00
2018-12-05T00:19:30.187Z,90.10
2018-12-05T00:21:58.451Z,92.80
2018-12-05T00:24:26.703Z,92.50
2018-12-05T00:26:58.124Z,88.30
2018-12-05T00:29:26.335Z,88.50
2018-12-05T00:31:54.550Z,88.10
2018-12-05T00:34:22.827Z,90.10
2018-12-05T00:36:51.074Z,90.30
2018-12-05T00:39:19.285Z,90.20
2018-12-05T00:41:47.494Z,88.10
2018-12-05T00:44:16.483Z,88.00
2018-12-05T00:46:45.505Z,88.50
2018-12-05T00:49:13.793Z,88.70
2018-12-05T00:51:41.989Z,89.20
2018-12-05T00:54:10.269Z,87.00
2018-12-05T00:56:38.463Z,87.60
2018-12-05T00:59:06.701Z,90.60
2018-12-05T01:01:34.961Z,92.60
2018-12-05T01:04:03.960Z,91.90
2018-12-05T01:06:32.168Z,92.40
2018-12-05T01:09:00.378Z,92.10
2018-12-05T01:11:28.612Z,92.10
2018-12-05T01:13:56.824Z,92.20
2018-12-05T01:16:25.089Z,90.10
2018-12-05T01:18:54.147Z,88.30
2018-12-05T01:21:22.403Z,87.70
2018-12-05T01:23:51.413Z,91.70
2018-12-05T01:26:19.721Z,91.60
2018-12-05T01:28:47.924Z,90.20
2018-12-05T01:31:16.169Z,92.70
2018-12-05T01:33:44.365Z,92.00
2018-12-05T01:36:12.635Z,91.20
2018-12-05T01:38:40.857Z,92.30
2018-12-05T01:41:10.656Z,90.60
2018-12-05T01:43:45.211Z,91.00
2018-12-05T01:46:13.433Z,90.90
2018-12-05T01:48:41.651Z,90.70
2018-12-05T01:51:09.905Z,91.20
2018-12-05T01:53:38.131Z,91.10
2018-12-05T01:56:06.383Z,90.60
2018-12-05T01:58:35.415Z,90.90
2018-12-05T02:01:03.647Z,91.00
2018-12-05T02:03:32.638Z,91.60
2018-12-05T02:06:00.850Z,91.40
2018-12-05T02:08:29.091Z,91.60
2018-12-05T02:10:57.347Z,92.40
2018-12-05T02:13:25.845Z,91.20
2018-12-05T02:15:53.779Z,90.90
2018-12-05T02:18:21.990Z,90.80
2018-12-05T02:20:51.035Z,93.10
2018-12-05T02:23:19.229Z,93.40
2018-12-05T02:25:47.505Z,92.60
2018-12-05T02:28:15.753Z,91.60
2018-12-05T02:30:44.026Z,93.70
2018-12-05T02:33:12.264Z,96.00
2018-12-05T02:35:41.299Z,93.20
2018-12-05T02:38:09.546Z,92.90
2018-12-05T02:40:38.547Z,92.60
2018-12-05T02:43:06.810Z,92.90
2018-12-05T02:45:35.073Z,94.90
2018-12-05T02:48:03.273Z,91.80
2018-12-05T02:50:31.540Z,94.40
2018-12-05T02:53:00.558Z,91.40
2018-12-05T02:55:28.789Z,91.40
2018-12-05T02:57:57.008Z,90.80
2018-12-05T03:00:25.212Z,91.40
2018-12-05T03:02:53.434Z,90.90
2018-12-05T03:05:22.459Z,91.60
2018-12-05T03:07:50.654Z,91.40
2018-12-05T03:10:18.910Z,92.60
2018-12-05T03:12:47.134Z,90.90
2018-12-05T03:15:15.406Z,91.20
2018-12-05T03:17:43.651Z,91.40
2018-12-05T03:20:11.908Z,90.70
2018-12-05T03:22:40.931Z,92.80
2018-12-05T03:25:09.139Z,93.00
2018-12-05T03:27:37.401Z,91.50
2018-12-05T03:30:05.658Z,93.80
2018-12-05T03:32:33.939Z,92.50
2018-12-05T03:35:02.138Z,92.60
2018-12-05T03:37:30.386Z,92.50
2018-12-05T03:39:58.602Z,91.50
2018-12-05T03:42:26.851Z,95.60
2018-12-05T03:44:55.120Z,92.10
2018-12-05T03:47:23.354Z,91.90
2018-12-05T03:49:52.353Z,92.00
2018-12-05T03:52:20.601Z,92.10
2018-12-05T03:54:48.874Z,92.60
2018-12-05T03:57:17.122Z,91.70
2018-12-05T03:59:45.388Z,91.50
2018-12-05T04:02:13.631Z,92.50
2018-12-05T04:04:42.660Z,91.80
2018-12-05T04:07:10.906Z,91.80
2018-12-05T04:09:39.903Z,93.90
2018-12-05T04:12:08.119Z,93.70
2018-12-05T04:14:36.367Z,92.70
2018-12-05T04:17:04.635Z,92.50
2018-12-05T04:19:33.617Z,91.10
2018-12-05T04:22:02.611Z,91.30
2018-12-05T04:24:31.611Z,92.90
2018-12-05T04:27:00.606Z,94.60
2018-12-05T04:29:29.621Z,93.40
2018-12-05T04:31:57.889Z,93.50
2018-12-05T04:34:26.084Z,91.90
2018-12-05T04:36:54.311Z,93.40
2018-12-05T04:39:23.295Z,91.60
2018-12-05T04:41:51.564Z,91.60
2018-12-05T04:44:19.814Z,93.20
2018-12-05T04:46:48.089Z,93.00
2018-12-05T04:49:16.338Z,90.90
2018-12-05T04:51:45.359Z,92.60
2018-12-05T04:54:13.611Z,92.50
2018-12-05T04:56:41.809Z,91.00
2018-12-05T04:59:10.050Z,90.80
2018-12-05T05:01:38.286Z,91.60
2018-12-05T05:04:06.506Z,91.10
2018-12-05T05:06:41.625Z,90.30
2018-12-05T05:09:03.761Z,90.70
2018-12-05T05:11:32.741Z,92.70
2018-12-05T05:14:00.964Z,92.80
2018-12-05T05:16:29.777Z,91.60
2018-12-05T05:18:58.047Z,92.60
2018-12-05T05:21:26.299Z,91.50
2018-12-05T05:23:54.570Z,90.80
2018-12-05T05:26:22.815Z,91.00
2018-12-05T05:28:51.039Z,89.60
2018-12-05T05:31:19.243Z,89.00
2018-12-05T05:33:49.219Z,88.10
2018-12-05T05:36:18.218Z,91.30
2018-12-05T05:38:46.435Z,91.10
2018-12-05T05:41:15.476Z,90.40
2018-12-05T05:43:44.487Z,90.80
2018-12-05T05:46:12.754Z,90.70
2018-12-05T05:48:41.789Z,88.80
2018-12-05T05:51:10.054Z,89.00
2018-12-05T05:53:38.295Z,91.10
2018-12-05T05:56:07.293Z,92.60
2018-12-05T05:58:35.595Z,92.50
2018-12-05T06:01:03.887Z,92.00
2018-12-05T06:03:32.130Z,90.90
2018-12-05T06:06:01.115Z,88.30
2018-12-05T06:08:30.150Z,89.30
2018-12-05T06:10:58.544Z,89.40
2018-12-05T06:13:26.846Z,88.80
2018-12-05T06:15:55.086Z,91.40
2018-12-05T06:18:23.358Z,90.80
2018-12-05T06:20:51.568Z,90.10
2018-12-05T06:23:19.840Z,89.70
2018-12-05T06:25:48.090Z,90.60
2018-12-05T06:28:16.321Z,88.90
2018-12-05T06:30:45.289Z,90.30
2018-12-05T06:33:13.601Z,90.30
2018-12-05T06:35:42.582Z,90.10
2018-12-05T06:38:11.580Z,89.10
2018-12-05T06:40:40.635Z,89.60
2018-12-05T06:43:08.857Z,89.50
2018-12-05T06:45:37.874Z,88.50
2018-12-05T06:48:06.077Z,88.60
2018-12-05T06:50:34.343Z,89.10
2018-12-05T06:53:02.576Z,89.60
2018-12-05T06:55:38.947Z,90.40
2018-12-05T06:58:00.517Z,90.80
2018-12-05T07:00:29.067Z,90.10
2018-12-05T07:02:58.067Z,90.10
2018-12-05T07:05:26.637Z,90.10
2018-12-05T07:07:55.607Z,88.30
2018-12-05T07:10:23.879Z,88.30
2018-12-05T07:12:52.083Z,89.10
2018-12-05T07:15:20.377Z,89.30
2018-12-05T07:17:48.585Z,89.60
2018-12-05T07:20:16.849Z,90.60
2018-12-05T07:22:45.107Z,90.20
2018-12-05T07:25:13.325Z,90.30
2018-12-05T07:27:41.603Z,90.20
2018-12-05T07:30:10.210Z,91.10
2018-12-05T07:32:38.467Z,91.50
2018-12-05T07:35:07.499Z,91.40
2018-12-05T07:37:36.480Z,90.60
2018-12-05T07:40:05.549Z,90.60
2018-12-05T07:42:33.829Z,91.30
2018-12-05T07:45:02.149Z,91.00
2018-12-05T07:47:31.148Z,91.20
2018-12-05T07:49:59.359Z,91.20
2018-12-05T07:52:27.604Z,91.00
2018-12-05T07:54:55.876Z,91.40
2018-12-05T07:57:24.142Z,93.10
2018-12-05T07:59:53.203Z,90.90
2018-12-05T08:02:21.510Z,91.00
2018-12-05T08:04:51.429Z,92.60
2018-12-05T08:07:20.403Z,91.10
2018-12-05T08:09:48.695Z,91.10
2018-12-05T08:12:17.672Z,94.60
2018-12-05T08:14:45.946Z,94.70
2018-12-05T08:17:14.161Z,93.30
2018-12-05T08:19:42.401Z,94.70
2018-12-05T08:22:10.670Z,93.50
2018-12-05T08:24:38.973Z,94.20
2018-12-05T08:27:08.841Z,93.80
2018-12-05T08:29:37.277Z,94.00
2018-12-05T08:32:06.316Z,96.30
2018-12-05T08:34:34.576Z,96.70
2018-12-05T08:37:03.853Z,94.40
2018-12-05T08:39:32.871Z,93.70
2018-12-05T08:42:01.149Z,93.70
2018-12-05T08:44:29.360Z,94.30
2018-12-05T08:46:57.621Z,93.80
2018-12-05T08:49:25.875Z,94.00
2018-12-05T08:51:54.106Z,94.60
2018-12-05T08:54:22.444Z,94.10
2018-12-05T08:56:50.661Z,96.80
2018-12-05T08:59:18.873Z,95.10
2018-12-05T09:01:47.139Z,94.60
2018-12-05T09:04:16.111Z,96.30
2018-12-05T09:06:45.198Z,95.90
2018-12-05T09:09:13.394Z,96.00
2018-12-05T09:11:42.397Z,97.80
2018-12-05T09:14:10.681Z,97.60
2018-12-05T09:16:38.870Z,98.40
2018-12-05T09:19:07.154Z,97.20
2018-12-05T09:21:35.372Z,99.50
2018-12-05T09:24:03.594Z,96.70
2018-12-05T09:26:32.339Z,99.90
2018-12-05T09:29:00.875Z,97.50
2018-12-05T09:31:29.057Z,98.40
2018-12-05T09:33:57.327Z,99.70
2018-12-05T09:36:25.571Z,99.00
2018-12-05T09:38:54.625Z,99.10
2018-12-05T09:41:22.828Z,99.20
2018-12-05T09:43:51.101Z,98.30
2018-12-05T09:46:19.347Z,99.60
2018-12-05T09:48:47.592Z,99.40
2018-12-05T09:51:15.813Z,98.60
2018-12-05T09:53:44.073Z,99.90
2018-12-05T09:56:12.338Z,99.90
2018-12-05T09:58:40.550Z,98.90
2018-12-05T10:01:08.778Z,99.20
2018-12-05T10:03:37.154Z,98.80
2018-12-05T10:06:05.469Z,99.90
2018-12-05T10:08:33.660Z,99.80
2018-12-05T10:11:01.959Z,99.00
2018-12-05T10:13:30.159Z,99.70
2018-12-05T10:15:58.398Z,99.90
2018-12-05T10:18:26.674Z,99.30
2018-12-05T10:20:56.144Z,99.30
2018-12-05T10:23:25.463Z,99.90
2018-12-05T10:25:53.700Z,99.90
2018-12-05T10:28:21.938Z,99.90
2018-12-05T10:30:50.936Z,99.90
2018-12-05T10:33:19.977Z,99.90
2018-12-05T10:35:49.023Z,99.90
2018-12-05T10:38:17.644Z,99.90
2018-12-05T10:40:45.836Z,99.90
2018-12-05T10:43:14.120Z,99.70
2018-12-05T10:45:42.667Z,99.90
2018-12-05T10:48:11.721Z,99.90
2018-12-05T10:50:40.884Z,99.90
2018-12-05T10:53:09.105Z,99.90
2018-12-05T10:55:37.371Z,99.90
2018-12-05T10:58:05.662Z,99.90
2018-12-05T11:00:39.450Z,99.90
2018-12-05T11:03:15.160Z,99.90
2018-12-05T11:05:49.101Z,99.90
2018-12-05T11:08:19.270Z,99.90
2018-12-05T11:10:54.006Z,99.90
2018-12-05T11:13:28.693Z,99.90
2018-12-05T11:16:00.904Z,99.90
2018-12-05T11:18:35.488Z,99.90
2018-12-05T11:21:09.465Z,99.90
2018-12-05T11:23:43.467Z,99.90
2018-12-05T11:26:11.761Z,99.90
2018-12-05T11:28:39.955Z,99.90
2018-12-05T11:31:08.209Z,99.90
2018-12-05T11:33:36.482Z,99.90
2018-12-05T11:36:04.746Z,99.90
2018-12-05T11:38:34.064Z,99.90
2018-12-05T11:41:02.758Z,99.90
2018-12-05T11:43:31.038Z,99.90
2018-12-05T11:45:59.292Z,99.90
2018-12-05T11:48:27.514Z,99.90
2018-12-05T11:50:55.731Z,99.90
2018-12-05T11:53:24.731Z,99.60
2018-12-05T11:55:53.002Z,99.40
2018-12-05T11:58:22.039Z,99.90
2018-12-05T12:00:50.307Z,99.90
2018-12-05T12:03:18.509Z,99.90
2018-12-05T12:05:46.741Z,99.90
2018-12-05T12:08:14.958Z,99.90
2018-12-05T12:10:43.189Z,99.90
2018-12-05T12:13:11.426Z,99.90
2018-12-05T12:15:39.654Z,99.90
2018-12-05T12:18:07.884Z,99.90
2018-12-05T12:20:36.128Z,99.90
2018-12-05T12:23:08.401Z,99.90
2018-12-05T12:25:36.652Z,99.90
2018-12-05T12:28:04.908Z,99.90
2018-12-05T12:30:33.938Z,99.80
2018-12-05T12:33:02.877Z,99.90
2018-12-05T12:35:30.394Z,99.90
2018-12-05T12:37:58.598Z,99.80
2018-12-05T12:40:26.816Z,99.70
2018-12-05T12:42:55.087Z,99.80
2018-12-05T12:45:23.336Z,99.70
2018-12-05T12:47:51.607Z,99.90
2018-12-05T12:50:19.855Z,99.90
2018-12-05T12:52:48.083Z,99.70
2018-12-05T12:55:17.102Z,99.70
2018-12-05T12:57:45.335Z,99.70
2018-12-05T13:00:13.598Z,99.80
2018-12-05T13:02:41.868Z,99.90
2018-12-05T13:05:10.115Z,99.60
2018-12-05T13:07:38.415Z,99.70
2018-12-05T13:10:06.616Z,99.60
2018-12-05T13:12:34.872Z,99.40
2018-12-05T13:15:03.146Z,99.50
2018-12-05T13:17:31.343Z,98.90
2018-12-05T13:19:59.579Z,99.20
2018-12-05T13:22:27.838Z,99.20
2018-12-05T13:24:56.072Z,99.10
2018-12-05T13:27:24.286Z,99.00
2018-12-05T13:29:52.566Z,98.80
2018-12-05T13:32:20.824Z,97.90
2018-12-05T13:34:49.142Z,98.60
2018-12-05T13:37:17.669Z,98.30
2018-12-05T13:39:45.908Z,98.50
2018-12-05T13:42:14.137Z,98.50
2018-12-05T13:44:43.123Z,98.40
2018-12-05T13:47:11.401Z,98.40
2018-12-05T13:49:39.605Z,98.50
2018-12-05T13:52:07.846Z,98.50
2018-12-05T13:54:36.147Z,98.50
2018-12-05T13:57:05.138Z,99.10
2018-12-05T13:59:34.113Z,99.00
2018-12-05T14:02:02.396Z,99.00
2018-12-05T14:04:31.134Z,99.00
2018-12-05T14:06:59.419Z,99.00
2018-12-05T14:09:27.631Z,99.00
2018-12-05T14:11:55.891Z,98.80
2018-12-05T14:14:24.171Z,98.30
2018-12-05T14:16:53.175Z,98.40
2018-12-05T14:19:21.417Z,98.40
2018-12-05T14:21:51.333Z,98.40
2018-12-05T14:24:20.438Z,97.90
2018-12-05T14:26:48.690Z,97.90
2018-12-05T14:29:16.932Z,97.80
2018-12-05T14:31:45.938Z,97.60
2018-12-05T14:34:14.961Z,97.30
2018-12-05T14:36:43.226Z,97.20
2018-12-05T14:39:11.484Z,97.10
2018-12-05T14:41:40.515Z,97.10
2018-12-05T14:44:08.769Z,97.00
2018-12-05T14:46:37.047Z,96.90
2018-12-05T14:49:05.298Z,96.80
2018-12-05T14:51:34.300Z,96.30
2018-12-05T14:54:03.321Z,96.50
2018-12-05T14:56:31.595Z,96.50
2018-12-05T14:58:59.810Z,96.30
2018-12-05T15:01:28.128Z,96.40
2018-12-05T15:03:57.103Z,95.60
2018-12-05T15:06:25.345Z,95.60
2018-12-05T15:08:53.575Z,95.00
2018-12-05T15:11:22.549Z,95.80
2018-12-05T15:13:50.798Z,95.70
2018-12-05T15:16:19.086Z,95.70
2018-12-05T15:18:47.297Z,95.40
2018-12-05T15:21:16.277Z,95.30
2018-12-05T15:23:45.280Z,93.80
2018-12-05T15:26:13.527Z,93.70
2018-12-05T15:28:41.754Z,95.20
2018-12-05T15:31:10.049Z,94.80
2018-12-05T15:33:38.280Z,94.60
2018-12-05T15:36:07.265Z,94.80
2018-12-05T15:38:35.509Z,94.70
2018-12-05T15:41:03.732Z,93.90
2018-12-05T15:43:32.723Z,95.30
2018-12-05T15:46:01.755Z,95.00
2018-12-05T15:48:29.978Z,95.00
2018-12-05T15:50:59.146Z,95.00
2018-12-05T15:53:27.433Z,94.80
2018-12-05T15:55:55.643Z,94.40
2018-12-05T15:58:23.907Z,94.90
2018-12-05T16:00:52.112Z,94.90
2018-12-05T16:03:20.350Z,95.00
2018-12-05T16:05:48.568Z,95.50
2018-12-05T16:08:16.785Z,95.20
2018-12-05T16:10:45.067Z,95.10
2018-12-05T16:13:13.289Z,95.10
2018-12-05T16:15:42.315Z,95.70
2018-12-05T16:18:10.549Z,95.60
2018-12-05T16:20:39.546Z,96.00
2018-12-05T16:23:08.567Z,96.40
2018-12-05T16:25:36.856Z,96.40
2018-12-05T16:28:05.072Z,96.50
2018-12-05T16:30:33.308Z,95.90
2018-12-05T16:33:01.521Z,95.70
2018-12-05T16:35:29.790Z,95.50
2018-12-05T16:37:58.226Z,95.30
2018-12-05T16:40:27.298Z,95.30
2018-12-05T16:42:56.328Z,95.10
2018-12-05T16:45:24.578Z,95.10
2018-12-05T16:47:53.615Z,94.20
2018-12-05T16:50:21.862Z,94.20
2018-12-05T16:52:50.867Z,94.30
2018-12-05T16:55:19.091Z,94.40
2018-12-05T16:57:47.372Z,94.50
2018-12-05T17:00:15.632Z,94.50
2018-12-05T17:02:43.837Z,94.50
2018-12-05T17:05:12.865Z,94.20
2018-12-05T17:07:41.088Z,94.20
2018-12-05T17:10:09.332Z,94.10
2018-12-05T17:12:37.617Z,93.90
2018-12-05T17:15:05.835Z,93.90
2018-12-05T17:17:34.067Z,94.00
2018-12-05T17:20:02.331Z,93.70
2018-12-05T17:22:30.584Z,93.80
2018-12-05T17:24:59.589Z,92.50
2018-12-05T17:27:27.858Z,92.50
2018-12-05T17:29:56.907Z,93.00
2018-12-05T17:32:25.122Z,93.00
2018-12-05T17:34:54.107Z,93.70
2018-12-05T17:37:23.089Z,93.40
2018-12-05T17:39:51.381Z,93.40
2018-12-05T17:42:22.020Z,94.10
2018-12-05T17:44:48.701Z,94.10
2018-12-05T17:47:16.922Z,94.60
2018-12-05T17:49:45.198Z,94.10
2018-12-05T17:52:13.472Z,94.10
2018-12-05T17:54:41.741Z,94.00
2018-12-05T17:57:09.987Z,94.00
2018-12-05T17:59:38.198Z,93.90
2018-12-05T18:02:06.446Z,94.00
2018-12-05T18:04:34.669Z,93.90
2018-12-05T18:07:03.683Z,93.70
2018-12-05T18:09:32.658Z,94.00
2018-12-05T18:12:01.705Z,94.10
2018-12-05T18:14:29.964Z,94.00
2018-12-05T18:16:58.251Z,93.90
2018-12-05T18:19:26.563Z,93.80
2018-12-05T18:21:54.822Z,93.80
2018-12-05T18:24:23.253Z,93.70
2018-12-05T18:26:52.345Z,93.60
2018-12-05T18:29:20.665Z,93.60
2018-12-05T18:31:49.104Z,93.60
2018-12-05T18:34:18.100Z,93.20
2018-12-05T18:36:47.088Z,93.30
2018-12-05T18:39:16.138Z,93.30
2018-12-05T18:41:44.351Z,93.30
2018-12-05T18:44:13.396Z,93.50
2018-12-05T18:46:41.605Z,93.40
2018-12-05T18:49:09.874Z,93.30
2018-12-05T18:51:38.129Z,93.20
2018-12-05T18:54:06.418Z,93.20
2018-12-05T18:56:35.440Z,93.20
2018-12-05T18:59:03.637Z,93.20
2018-12-05T19:01:31.874Z,93.10
2018-12-05T19:04:00.084Z,93.00
2018-12-05T19:06:29.088Z,93.00
2018-12-05T19:08:58.132Z,93.20
2018-12-05T19:11:26.411Z,93.10
2018-12-05T19:14:00.403Z,92.90
2018-12-05T19:16:28.685Z,92.90
2018-12-05T19:18:56.887Z,92.90
2018-12-05T19:21:25.115Z,92.50
2018-12-05T19:23:53.924Z,92.60
2018-12-05T19:26:22.197Z,93.10
2018-12-05T19:28:50.473Z,93.20
2018-12-05T19:31:19.497Z,93.10
2018-12-05T19:33:47.239Z,93.00
2018-12-05T19:36:15.523Z,93.20
2018-12-05T19:38:43.886Z,93.10
2018-12-05T19:41:12.186Z,93.20
2018-12-05T19:43:40.370Z,93.20
2018-12-05T19:46:08.644Z,93.20
2018-12-05T19:48:39.822Z,93.20
2018-12-05T19:51:06.584Z,93.10
2018-12-05T19:53:35.653Z,93.20
2018-12-05T19:56:03.883Z,93.20
2018-12-05T19:58:32.091Z,93.20
2018-12-05T20:01:00.379Z,92.80
2018-12-05T20:03:28.619Z,93.60
2018-12-05T20:05:56.892Z,93.50
2018-12-05T20:08:25.163Z,93.20
2018-12-05T20:10:54.412Z,92.10
2018-12-05T20:13:23.490Z,92.70
2018-12-05T20:15:51.746Z,92.70
2018-12-05T20:18:20.017Z,92.60
2018-12-05T20:20:49.017Z,92.50
2018-12-05T20:23:17.276Z,90.80
2018-12-05T20:25:45.547Z,92.40
2018-12-05T20:28:13.765Z,89.50
2018-12-05T20:30:42.025Z,90.30
2018-12-05T20:33:10.291Z,92.30
2018-12-05T20:35:38.517Z,92.00
2018-12-05T20:38:06.879Z,92.10
2018-12-05T20:40:35.061Z,92.00
2018-12-05T20:43:03.336Z,92.10
2018-12-05T20:45:31.573Z,92.10
2018-12-05T20:47:59.828Z,90.40
2018-12-05T20:50:28.061Z,91.30
2018-12-05T20:52:56.348Z,91.80
2018-12-05T20:55:24.622Z,92.20
2018-12-05T20:57:52.816Z,92.10
2018-12-05T21:00:21.887Z,92.20
2018-12-05T21:02:50.136Z,92.20
2018-12-05T21:05:18.411Z,92.20
2018-12-05T21:07:46.699Z,92.40
2018-12-05T21:10:14.965Z,92.40
2018-12-05T21:12:43.177Z,92.40
2018-12-05T21:15:11.499Z,91.90
2018-12-05T21:17:40.468Z,92.60
2018-12-05T21:20:09.482Z,91.80
2018-12-05T21:22:37.769Z,91.80
2018-12-05T21:25:05.972Z,91.20
2018-12-05T21:27:34.266Z,91.70
2018-12-05T21:30:03.252Z,91.50
2018-12-05T21:32:31.489Z,91.50
2018-12-05T21:34:59.714Z,85.90
2018-12-05T21:37:28.072Z,91.80
2018-12-05T21:39:56.329Z,90.20
2018-12-05T21:42:24.596Z,91.90
2018-12-05T21:44:52.802Z,92.60
2018-12-05T21:47:23.839Z,92.00
2018-12-05T21:49:52.127Z,91.80
2018-12-05T21:52:21.162Z,92.30
2018-12-05T21:54:49.390Z,92.30
2018-12-05T21:57:17.601Z,92.20
2018-12-05T21:59:45.903Z,91.80
2018-12-05T22:02:14.916Z,91.30
2018-12-05T22:04:43.116Z,91.30
2018-12-05T22:07:11.418Z,92.30
2018-12-05T22:09:39.677Z,91.10
2018-12-05T22:12:07.906Z,91.90
2018-12-05T22:14:38.547Z,91.30
2018-12-05T22:17:05.207Z,91.30
2018-12-05T22:19:33.452Z,92.00
2018-12-05T22:22:02.453Z,90.50
2018-12-05T22:24:30.678Z,90.40
2018-12-05T22:26:58.932Z,91.50
2018-12-05T22:29:27.193Z,90.50
2018-12-05T22:31:55.412Z,91.80
2018-12-05T22:34:23.637Z,85.70
2018-12-05T22:36:51.854Z,91.50
2018-12-05T22:39:20.142Z,83.80
2018-12-05T22:41:48.362Z,90.80
2018-12-05T22:44:17.378Z,92.40
2018-12-05T22:46:45.623Z,92.40
2018-12-05T22:49:14.663Z,92.10
2018-12-05T22:51:42.865Z,92.10
2018-12-05T22:54:11.079Z,91.40
2018-12-05T22:56:39.363Z,91.80
2018-12-05T22:59:08.325Z,88.30
2018-12-05T23:01:36.602Z,87.70
2018-12-05T23:04:04.836Z,90.20
2018-12-05T23:06:33.119Z,90.90
2018-12-05T23:09:01.314Z,91.50
2018-12-05T23:11:31.091Z,91.50
2018-12-05T23:13:59.340Z,91.30
2018-12-05T23:16:27.616Z,91.80
2018-12-05T23:18:56.626Z,91.80
2018-12-05T23:21:24.868Z,91.70
2018-12-05T23:23:53.850Z,92.10
2018-12-05T23:26:22.120Z,91.90
2018-12-05T23:28:50.324Z,90.70
2018-12-05T23:31:19.375Z,92.30
2018-12-05T23:33:47.617Z,92.00
2018-12-05T23:36:15.877Z,90.20
2018-12-05T23:38:44.899Z,90.50
2018-12-05T23:41:13.113Z,90.60
2018-12-05T23:43:41.331Z,91.50
2018-12-05T23:46:09.531Z,91.60
2018-12-05T23:48:37.809Z,89.90
2018-12-05T23:51:06.053Z,83.80
2018-12-05T23:53:35.048Z,92.30
2018-12-05T23:56:04.000Z,92.00
2018-12-05T23:58:32.252Z,92.20
